sensor_id;sensor_type;location;lat;lon;timestamp;P1;durP1;ratioP1;P2;durP2;ratioP2
77061;SDS011;65989;51.686;5.138;2023-04-03T00:00:59;6.68;;;3.38;;
77061;SDS011;65989;51.686;5.138;2023-04-03T00:03:25;9.25;;;3.28;;
77061;SDS011;65989;51.686;5.138;2023-04-03T00:05:50;9.93;;;3.57;;
77061;SDS011;65989;51.686;5.138;2023-04-03T00:08:16;8.40;;;3.53;;
77061;SDS011;65989;51.686;5.138;2023-04-03T00:10:41;9.30;;;3.10;;
77061;SDS011;65989;51.686;5.138;2023-04-03T00:13:07;7.00;;;3.10;;
77061;SDS011;65989;51.686;5.138;2023-04-03T00:15:34;6.03;;;3.05;;
77061;SDS011;65989;51.686;5.138;2023-04-03T00:18:00;8.93;;;2.90;;
77061;SDS011;65989;51.686;5.138;2023-04-03T00:20:26;5.57;;;2.83;;
77061;SDS011;65989;51.686;5.138;2023-04-03T00:22:52;6.55;;;3.20;;
77061;SDS011;65989;51.686;5.138;2023-04-03T00:25:18;8.55;;;3.45;;
77061;SDS011;65989;51.686;5.138;2023-04-03T00:27:43;6.47;;;2.93;;
77061;SDS011;65989;51.686;5.138;2023-04-03T00:30:10;6.80;;;2.83;;
77061;SDS011;65989;51.686;5.138;2023-04-03T00:32:38;6.88;;;3.10;;
77061;SDS011;65989;51.686;5.138;2023-04-03T00:35:04;6.93;;;3.40;;
77061;SDS011;65989;51.686;5.138;2023-04-03T00:37:30;6.78;;;3.60;;
77061;SDS011;65989;51.686;5.138;2023-04-03T00:39:55;9.13;;;3.43;;
77061;SDS011;65989;51.686;5.138;2023-04-03T00:42:21;7.13;;;3.35;;
77061;SDS011;65989;51.686;5.138;2023-04-03T00:47:13;7.10;;;2.77;;
77061;SDS011;65989;51.686;5.138;2023-04-03T00:49:42;7.40;;;3.45;;
77061;SDS011;65989;51.686;5.138;2023-04-03T00:52:10;8.80;;;2.92;;
77061;SDS011;65989;51.686;5.138;2023-04-03T00:54:40;8.80;;;2.90;;
77061;SDS011;65989;51.686;5.138;2023-04-03T00:57:08;6.90;;;3.10;;
77061;SDS011;65989;51.686;5.138;2023-04-03T00:59:36;6.78;;;2.80;;
77061;SDS011;65989;51.686;5.138;2023-04-03T01:02:05;8.57;;;2.70;;
77061;SDS011;65989;51.686;5.138;2023-04-03T01:04:32;6.10;;;2.80;;
77061;SDS011;65989;51.686;5.138;2023-04-03T01:07:05;9.02;;;2.92;;
77061;SDS011;65989;51.686;5.138;2023-04-03T01:09:33;7.25;;;2.58;;
77061;SDS011;65989;51.686;5.138;2023-04-03T01:12:12;7.25;;;2.78;;
77061;SDS011;65989;51.686;5.138;2023-04-03T01:14:59;8.40;;;2.45;;
77061;SDS011;65989;51.686;5.138;2023-04-03T01:25:26;6.75;;;2.65;;
77061;SDS011;65989;51.686;5.138;2023-04-03T01:27:52;11.13;;;3.23;;
77061;SDS011;65989;51.686;5.138;2023-04-03T01:30:18;6.70;;;2.75;;
77061;SDS011;65989;51.686;5.138;2023-04-03T01:32:45;7.13;;;2.72;;
77061;SDS011;65989;51.686;5.138;2023-04-03T01:35:11;8.47;;;2.90;;
77061;SDS011;65989;51.686;5.138;2023-04-03T01:37:37;7.53;;;2.72;;
77061;SDS011;65989;51.686;5.138;2023-04-03T01:40:03;7.27;;;2.27;;
77061;SDS011;65989;51.686;5.138;2023-04-03T01:42:29;8.98;;;2.90;;
77061;SDS011;65989;51.686;5.138;2023-04-03T01:44:54;7.13;;;2.40;;
77061;SDS011;65989;51.686;5.138;2023-04-03T01:47:20;8.00;;;2.90;;
77061;SDS011;65989;51.686;5.138;2023-04-03T01:49:46;5.57;;;2.73;;
77061;SDS011;65989;51.686;5.138;2023-04-03T01:52:12;5.97;;;2.83;;
77061;SDS011;65989;51.686;5.138;2023-04-03T01:54:37;7.27;;;2.90;;
77061;SDS011;65989;51.686;5.138;2023-04-03T01:57:02;7.43;;;2.57;;
77061;SDS011;65989;51.686;5.138;2023-04-03T01:59:28;5.63;;;2.60;;
77061;SDS011;65989;51.686;5.138;2023-04-03T02:01:53;6.60;;;2.40;;
77061;SDS011;65989;51.686;5.138;2023-04-03T02:04:19;8.80;;;2.63;;
77061;SDS011;65989;51.686;5.138;2023-04-03T02:06:44;10.13;;;3.20;;
77061;SDS011;65989;51.686;5.138;2023-04-03T02:09:10;10.93;;;2.80;;
77061;SDS011;65989;51.686;5.138;2023-04-03T02:11:35;7.63;;;2.70;;
77061;SDS011;65989;51.686;5.138;2023-04-03T02:14:01;8.23;;;3.00;;
77061;SDS011;65989;51.686;5.138;2023-04-03T02:16:26;6.80;;;3.20;;
77061;SDS011;65989;51.686;5.138;2023-04-03T02:18:53;5.17;;;2.67;;
77061;SDS011;65989;51.686;5.138;2023-04-03T02:21:19;6.85;;;2.75;;
77061;SDS011;65989;51.686;5.138;2023-04-03T02:23:44;9.80;;;3.07;;
77061;SDS011;65989;51.686;5.138;2023-04-03T02:26:11;8.57;;;2.87;;
77061;SDS011;65989;51.686;5.138;2023-04-03T02:28:38;8.98;;;2.85;;
77061;SDS011;65989;51.686;5.138;2023-04-03T02:31:05;10.10;;;2.90;;
77061;SDS011;65989;51.686;5.138;2023-04-03T02:33:31;7.82;;;3.10;;
77061;SDS011;65989;51.686;5.138;2023-04-03T02:35:57;6.90;;;2.70;;
77061;SDS011;65989;51.686;5.138;2023-04-03T02:38:23;10.43;;;2.78;;
77061;SDS011;65989;51.686;5.138;2023-04-03T02:40:49;7.47;;;2.95;;
77061;SDS011;65989;51.686;5.138;2023-04-03T02:43:16;9.98;;;2.95;;
77061;SDS011;65989;51.686;5.138;2023-04-03T02:45:41;4.40;;;2.40;;
77061;SDS011;65989;51.686;5.138;2023-04-03T02:48:06;7.57;;;2.83;;
77061;SDS011;65989;51.686;5.138;2023-04-03T02:50:32;8.60;;;3.20;;
77061;SDS011;65989;51.686;5.138;2023-04-03T02:52:57;7.57;;;2.70;;
77061;SDS011;65989;51.686;5.138;2023-04-03T02:55:23;6.83;;;3.00;;
77061;SDS011;65989;51.686;5.138;2023-04-03T02:57:48;8.83;;;2.87;;
77061;SDS011;65989;51.686;5.138;2023-04-03T03:00:13;7.87;;;2.80;;
77061;SDS011;65989;51.686;5.138;2023-04-03T03:02:39;7.47;;;2.88;;
77061;SDS011;65989;51.686;5.138;2023-04-03T03:05:05;6.40;;;2.90;;
77061;SDS011;65989;51.686;5.138;2023-04-03T03:07:31;7.55;;;2.90;;
77061;SDS011;65989;51.686;5.138;2023-04-03T03:09:57;8.82;;;2.70;;
77061;SDS011;65989;51.686;5.138;2023-04-03T03:12:22;9.50;;;2.83;;
77061;SDS011;65989;51.686;5.138;2023-04-03T03:14:49;6.97;;;2.83;;
77061;SDS011;65989;51.686;5.138;2023-04-03T03:17:14;6.33;;;2.80;;
77061;SDS011;65989;51.686;5.138;2023-04-03T03:19:40;6.90;;;2.57;;
77061;SDS011;65989;51.686;5.138;2023-04-03T03:22:05;9.73;;;3.10;;
77061;SDS011;65989;51.686;5.138;2023-04-03T03:24:30;10.82;;;3.10;;
77061;SDS011;65989;51.686;5.138;2023-04-03T03:26:56;7.80;;;2.77;;
77061;SDS011;65989;51.686;5.138;2023-04-03T03:29:21;6.73;;;2.63;;
77061;SDS011;65989;51.686;5.138;2023-04-03T03:31:47;7.63;;;2.83;;
77061;SDS011;65989;51.686;5.138;2023-04-03T03:34:12;6.97;;;2.65;;
77061;SDS011;65989;51.686;5.138;2023-04-03T03:36:38;6.73;;;2.90;;
77061;SDS011;65989;51.686;5.138;2023-04-03T03:39:03;6.17;;;2.87;;
77061;SDS011;65989;51.686;5.138;2023-04-03T03:41:29;6.05;;;2.80;;
77061;SDS011;65989;51.686;5.138;2023-04-03T03:43:54;7.10;;;3.07;;
77061;SDS011;65989;51.686;5.138;2023-04-03T03:46:20;7.00;;;3.10;;
77061;SDS011;65989;51.686;5.138;2023-04-03T03:48:45;6.53;;;2.70;;
77061;SDS011;65989;51.686;5.138;2023-04-03T03:51:11;9.45;;;3.38;;
77061;SDS011;65989;51.686;5.138;2023-04-03T03:53:36;6.53;;;2.67;;
77061;SDS011;65989;51.686;5.138;2023-04-03T03:56:01;7.13;;;3.20;;
77061;SDS011;65989;51.686;5.138;2023-04-03T03:58:27;7.70;;;2.70;;
77061;SDS011;65989;51.686;5.138;2023-04-03T04:00:52;7.55;;;2.92;;
77061;SDS011;65989;51.686;5.138;2023-04-03T04:03:18;7.37;;;3.23;;
77061;SDS011;65989;51.686;5.138;2023-04-03T04:05:43;6.60;;;2.80;;
77061;SDS011;65989;51.686;5.138;2023-04-03T04:08:09;7.00;;;2.90;;
77061;SDS011;65989;51.686;5.138;2023-04-03T04:10:35;8.00;;;2.80;;
77061;SDS011;65989;51.686;5.138;2023-04-03T04:13:02;8.27;;;2.90;;
77061;SDS011;65989;51.686;5.138;2023-04-03T04:15:27;8.53;;;2.80;;
77061;SDS011;65989;51.686;5.138;2023-04-03T04:17:53;8.70;;;3.10;;
77061;SDS011;65989;51.686;5.138;2023-04-03T04:20:18;9.68;;;2.70;;
77061;SDS011;65989;51.686;5.138;2023-04-03T04:22:44;5.57;;;2.60;;
77061;SDS011;65989;51.686;5.138;2023-04-03T04:25:09;6.47;;;3.03;;
77061;SDS011;65989;51.686;5.138;2023-04-03T04:27:35;6.38;;;3.00;;
77061;SDS011;65989;51.686;5.138;2023-04-03T04:30:02;7.38;;;2.88;;
77061;SDS011;65989;51.686;5.138;2023-04-03T04:32:28;8.20;;;2.53;;
77061;SDS011;65989;51.686;5.138;2023-04-03T04:34:53;7.65;;;2.90;;
77061;SDS011;65989;51.686;5.138;2023-04-03T04:37:19;8.20;;;3.03;;
77061;SDS011;65989;51.686;5.138;2023-04-03T04:39:44;9.57;;;3.37;;
77061;SDS011;65989;51.686;5.138;2023-04-03T04:42:10;6.18;;;3.10;;
77061;SDS011;65989;51.686;5.138;2023-04-03T04:44:38;9.57;;;3.10;;
77061;SDS011;65989;51.686;5.138;2023-04-03T04:47:03;6.50;;;3.57;;
77061;SDS011;65989;51.686;5.138;2023-04-03T04:49:29;6.68;;;3.20;;
77061;SDS011;65989;51.686;5.138;2023-04-03T04:51:54;6.80;;;3.10;;
77061;SDS011;65989;51.686;5.138;2023-04-03T04:54:20;9.13;;;3.30;;
77061;SDS011;65989;51.686;5.138;2023-04-03T04:56:46;7.63;;;3.50;;
77061;SDS011;65989;51.686;5.138;2023-04-03T04:59:11;8.40;;;3.07;;
77061;SDS011;65989;51.686;5.138;2023-04-03T05:01:39;8.73;;;3.60;;
77061;SDS011;65989;51.686;5.138;2023-04-03T05:04:05;9.40;;;3.42;;
77061;SDS011;65989;51.686;5.138;2023-04-03T05:06:30;6.93;;;3.57;;
77061;SDS011;65989;51.686;5.138;2023-04-03T05:08:57;7.15;;;3.15;;
77061;SDS011;65989;51.686;5.138;2023-04-03T05:11:23;10.60;;;3.92;;
77061;SDS011;65989;51.686;5.138;2023-04-03T05:13:48;6.53;;;3.33;;
77061;SDS011;65989;51.686;5.138;2023-04-03T05:16:13;11.02;;;3.72;;
77061;SDS011;65989;51.686;5.138;2023-04-03T05:18:39;7.37;;;3.40;;
77061;SDS011;65989;51.686;5.138;2023-04-03T05:21:04;7.90;;;3.23;;
77061;SDS011;65989;51.686;5.138;2023-04-03T05:23:30;7.00;;;3.33;;
77061;SDS011;65989;51.686;5.138;2023-04-03T05:25:55;8.00;;;3.63;;
77061;SDS011;65989;51.686;5.138;2023-04-03T05:28:21;9.57;;;3.70;;
77061;SDS011;65989;51.686;5.138;2023-04-03T05:30:52;8.77;;;2.97;;
77061;SDS011;65989;51.686;5.138;2023-04-03T05:33:21;7.43;;;2.97;;
77061;SDS011;65989;51.686;5.138;2023-04-03T05:35:46;8.80;;;3.30;;
77061;SDS011;65989;51.686;5.138;2023-04-03T05:38:12;7.33;;;3.10;;
77061;SDS011;65989;51.686;5.138;2023-04-03T05:40:37;5.03;;;2.67;;
77061;SDS011;65989;51.686;5.138;2023-04-03T05:43:03;7.87;;;3.10;;
77061;SDS011;65989;51.686;5.138;2023-04-03T05:45:28;8.60;;;3.10;;
77061;SDS011;65989;51.686;5.138;2023-04-03T05:47:54;7.80;;;3.05;;
77061;SDS011;65989;51.686;5.138;2023-04-03T05:50:19;8.67;;;3.37;;
77061;SDS011;65989;51.686;5.138;2023-04-03T05:52:45;7.33;;;3.07;;
77061;SDS011;65989;51.686;5.138;2023-04-03T05:55:14;7.85;;;2.80;;
77061;SDS011;65989;51.686;5.138;2023-04-03T05:57:40;6.88;;;2.92;;
77061;SDS011;65989;51.686;5.138;2023-04-03T06:00:07;6.20;;;2.90;;
77061;SDS011;65989;51.686;5.138;2023-04-03T06:02:34;8.45;;;2.55;;
77061;SDS011;65989;51.686;5.138;2023-04-03T06:05:00;8.10;;;3.10;;
77061;SDS011;65989;51.686;5.138;2023-04-03T06:07:26;5.30;;;2.60;;
77061;SDS011;65989;51.686;5.138;2023-04-03T06:09:53;7.70;;;2.70;;
77061;SDS011;65989;51.686;5.138;2023-04-03T06:12:20;7.93;;;2.88;;
77061;SDS011;65989;51.686;5.138;2023-04-03T06:14:46;6.65;;;2.60;;
77061;SDS011;65989;51.686;5.138;2023-04-03T06:17:12;9.55;;;2.58;;
77061;SDS011;65989;51.686;5.138;2023-04-03T06:19:38;9.97;;;2.80;;
77061;SDS011;65989;51.686;5.138;2023-04-03T06:22:04;8.07;;;2.78;;
77061;SDS011;65989;51.686;5.138;2023-04-03T06:24:30;6.40;;;2.38;;
77061;SDS011;65989;51.686;5.138;2023-04-03T06:26:56;6.70;;;2.63;;
77061;SDS011;65989;51.686;5.138;2023-04-03T06:29:22;6.43;;;2.78;;
77061;SDS011;65989;51.686;5.138;2023-04-03T06:31:48;7.37;;;2.83;;
77061;SDS011;65989;51.686;5.138;2023-04-03T06:34:14;10.75;;;3.28;;
77061;SDS011;65989;51.686;5.138;2023-04-03T06:36:40;6.80;;;2.58;;
77061;SDS011;65989;51.686;5.138;2023-04-03T06:39:08;7.85;;;2.63;;
77061;SDS011;65989;51.686;5.138;2023-04-03T06:41:37;8.50;;;2.80;;
77061;SDS011;65989;51.686;5.138;2023-04-03T06:44:03;6.30;;;2.43;;
77061;SDS011;65989;51.686;5.138;2023-04-03T06:46:28;7.53;;;2.83;;
77061;SDS011;65989;51.686;5.138;2023-04-03T06:48:54;6.37;;;2.80;;
77061;SDS011;65989;51.686;5.138;2023-04-03T06:51:24;9.93;;;3.13;;
77061;SDS011;65989;51.686;5.138;2023-04-03T06:53:52;9.17;;;2.57;;
77061;SDS011;65989;51.686;5.138;2023-04-03T06:56:18;7.15;;;2.70;;
77061;SDS011;65989;51.686;5.138;2023-04-03T06:58:44;8.43;;;2.65;;
77061;SDS011;65989;51.686;5.138;2023-04-03T07:01:11;6.20;;;2.67;;
77061;SDS011;65989;51.686;5.138;2023-04-03T07:03:39;6.95;;;2.50;;
77061;SDS011;65989;51.686;5.138;2023-04-03T07:06:05;5.97;;;2.60;;
77061;SDS011;65989;51.686;5.138;2023-04-03T07:08:32;5.93;;;2.33;;
77061;SDS011;65989;51.686;5.138;2023-04-03T07:10:58;6.93;;;2.83;;
77061;SDS011;65989;51.686;5.138;2023-04-03T07:13:23;9.57;;;2.70;;
77061;SDS011;65989;51.686;5.138;2023-04-03T07:15:49;9.03;;;2.60;;
77061;SDS011;65989;51.686;5.138;2023-04-03T07:18:15;8.90;;;2.70;;
77061;SDS011;65989;51.686;5.138;2023-04-03T07:20:42;7.63;;;2.73;;
77061;SDS011;65989;51.686;5.138;2023-04-03T07:23:07;6.57;;;2.47;;
77061;SDS011;65989;51.686;5.138;2023-04-03T07:25:33;7.35;;;2.33;;
77061;SDS011;65989;51.686;5.138;2023-04-03T07:27:59;10.50;;;2.80;;
77061;SDS011;65989;51.686;5.138;2023-04-03T07:30:24;8.53;;;2.43;;
77061;SDS011;65989;51.686;5.138;2023-04-03T07:32:50;8.68;;;2.63;;
77061;SDS011;65989;51.686;5.138;2023-04-03T07:35:16;7.97;;;2.50;;
77061;SDS011;65989;51.686;5.138;2023-04-03T07:37:42;7.10;;;2.40;;
77061;SDS011;65989;51.686;5.138;2023-04-03T07:40:08;9.20;;;2.65;;
77061;SDS011;65989;51.686;5.138;2023-04-03T07:42:34;8.40;;;2.67;;
77061;SDS011;65989;51.686;5.138;2023-04-03T07:45:01;6.25;;;2.70;;
77061;SDS011;65989;51.686;5.138;2023-04-03T07:47:27;12.90;;;2.93;;
77061;SDS011;65989;51.686;5.138;2023-04-03T07:49:53;6.78;;;2.60;;
77061;SDS011;65989;51.686;5.138;2023-04-03T07:52:18;7.33;;;2.70;;
77061;SDS011;65989;51.686;5.138;2023-04-03T07:54:43;6.50;;;2.40;;
77061;SDS011;65989;51.686;5.138;2023-04-03T07:57:09;6.23;;;2.40;;
77061;SDS011;65989;51.686;5.138;2023-04-03T07:59:34;6.40;;;2.05;;
77061;SDS011;65989;51.686;5.138;2023-04-03T08:02:00;6.03;;;2.80;;
77061;SDS011;65989;51.686;5.138;2023-04-03T08:04:25;8.33;;;3.07;;
77061;SDS011;65989;51.686;5.138;2023-04-03T08:06:52;8.05;;;2.67;;
77061;SDS011;65989;51.686;5.138;2023-04-03T08:09:18;11.93;;;3.42;;
77061;SDS011;65989;51.686;5.138;2023-04-03T08:11:44;8.65;;;2.70;;
77061;SDS011;65989;51.686;5.138;2023-04-03T08:14:10;6.63;;;2.57;;
77061;SDS011;65989;51.686;5.138;2023-04-03T08:16:41;6.72;;;2.33;;
77061;SDS011;65989;51.686;5.138;2023-04-03T08:19:06;7.20;;;2.40;;
77061;SDS011;65989;51.686;5.138;2023-04-03T08:21:32;6.70;;;2.37;;
77061;SDS011;65989;51.686;5.138;2023-04-03T08:23:58;7.22;;;2.60;;
77061;SDS011;65989;51.686;5.138;2023-04-03T08:26:23;9.30;;;2.97;;
77061;SDS011;65989;51.686;5.138;2023-04-03T08:28:51;11.68;;;3.05;;
77061;SDS011;65989;51.686;5.138;2023-04-03T08:31:17;6.97;;;2.00;;
77061;SDS011;65989;51.686;5.138;2023-04-03T08:33:44;5.05;;;2.00;;
77061;SDS011;65989;51.686;5.138;2023-04-03T08:36:20;5.32;;;1.90;;
77061;SDS011;65989;51.686;5.138;2023-04-03T08:38:53;5.50;;;1.77;;
77061;SDS011;65989;51.686;5.138;2023-04-03T08:47:00;6.32;;;1.60;;
77061;SDS011;65989;51.686;5.138;2023-04-03T08:50:10;4.55;;;1.60;;
77061;SDS011;65989;51.686;5.138;2023-04-03T08:52:39;4.57;;;1.42;;
77061;SDS011;65989;51.686;5.138;2023-04-03T08:57:53;2.97;;;1.52;;
77061;SDS011;65989;51.686;5.138;2023-04-03T09:00:26;4.32;;;1.50;;
77061;SDS011;65989;51.686;5.138;2023-04-03T09:02:58;4.63;;;1.50;;
77061;SDS011;65989;51.686;5.138;2023-04-03T09:08:22;4.38;;;1.40;;
77061;SDS011;65989;51.686;5.138;2023-04-03T09:10:52;5.43;;;1.75;;
77061;SDS011;65989;51.686;5.138;2023-04-03T09:16:14;3.92;;;1.55;;
77061;SDS011;65989;51.686;5.138;2023-04-03T09:18:48;6.03;;;1.90;;
77061;SDS011;65989;51.686;5.138;2023-04-03T09:21:25;5.85;;;1.55;;
77061;SDS011;65989;51.686;5.138;2023-04-03T09:24:00;2.90;;;1.30;;
77061;SDS011;65989;51.686;5.138;2023-04-03T09:26:30;5.57;;;1.83;;
77061;SDS011;65989;51.686;5.138;2023-04-03T09:29:01;11.07;;;1.60;;
77061;SDS011;65989;51.686;5.138;2023-04-03T09:31:35;3.78;;;1.30;;
77061;SDS011;65989;51.686;5.138;2023-04-03T09:34:06;2.90;;;1.27;;
77061;SDS011;65989;51.686;5.138;2023-04-03T09:39:05;3.80;;;1.30;;
77061;SDS011;65989;51.686;5.138;2023-04-03T09:41:35;2.47;;;1.05;;
77061;SDS011;65989;51.686;5.138;2023-04-03T09:44:01;3.13;;;1.10;;
77061;SDS011;65989;51.686;5.138;2023-04-03T09:46:30;5.03;;;1.17;;
77061;SDS011;65989;51.686;5.138;2023-04-03T09:49:02;2.63;;;1.20;;
77061;SDS011;65989;51.686;5.138;2023-04-03T09:51:29;4.80;;;1.60;;
77061;SDS011;65989;51.686;5.138;2023-04-03T09:53:56;5.95;;;1.70;;
77061;SDS011;65989;51.686;5.138;2023-04-03T09:56:28;2.67;;;1.45;;
77061;SDS011;65989;51.686;5.138;2023-04-03T10:01:30;4.32;;;1.60;;
77061;SDS011;65989;51.686;5.138;2023-04-03T10:06:39;4.32;;;1.50;;
77061;SDS011;65989;51.686;5.138;2023-04-03T10:09:24;3.25;;;1.42;;
77061;SDS011;65989;51.686;5.138;2023-04-03T10:14:41;3.63;;;1.20;;
77061;SDS011;65989;51.686;5.138;2023-04-03T10:17:19;2.83;;;1.33;;
77061;SDS011;65989;51.686;5.138;2023-04-03T10:19:53;3.22;;;1.35;;
77061;SDS011;65989;51.686;5.138;2023-04-03T10:38:40;3.72;;;1.30;;
77061;SDS011;65989;51.686;5.138;2023-04-03T10:46:47;3.90;;;1.45;;
77061;SDS011;65989;51.686;5.138;2023-04-03T10:51:47;4.00;;;1.38;;
77061;SDS011;65989;51.686;5.138;2023-04-03T10:54:24;2.42;;;1.25;;
77061;SDS011;65989;51.686;5.138;2023-04-03T10:57:08;3.53;;;1.30;;
77061;SDS011;65989;51.686;5.138;2023-04-03T10:59:37;3.33;;;1.30;;
77061;SDS011;65989;51.686;5.138;2023-04-03T11:02:07;3.13;;;1.20;;
77061;SDS011;65989;51.686;5.138;2023-04-03T11:04:52;3.95;;;1.30;;
77061;SDS011;65989;51.686;5.138;2023-04-03T11:07:29;5.03;;;1.17;;
77061;SDS011;65989;51.686;5.138;2023-04-03T11:10:03;1.63;;;1.00;;
77061;SDS011;65989;51.686;5.138;2023-04-03T11:12:42;4.93;;;1.08;;
77061;SDS011;65989;51.686;5.138;2023-04-03T11:15:12;3.95;;;1.02;;
77061;SDS011;65989;51.686;5.138;2023-04-03T11:17:42;2.80;;;1.20;;
77061;SDS011;65989;51.686;5.138;2023-04-03T11:20:17;4.70;;;1.40;;
77061;SDS011;65989;51.686;5.138;2023-04-03T11:23:30;2.23;;;1.20;;
77061;SDS011;65989;51.686;5.138;2023-04-03T11:25:44;2.80;;;1.00;;
77061;SDS011;65989;51.686;5.138;2023-04-03T11:28:14;2.70;;;1.20;;
77061;SDS011;65989;51.686;5.138;2023-04-03T11:35:53;2.55;;;1.10;;
77061;SDS011;65989;51.686;5.138;2023-04-03T11:38:28;4.47;;;1.30;;
77061;SDS011;65989;51.686;5.138;2023-04-03T11:41:01;2.97;;;1.10;;
77061;SDS011;65989;51.686;5.138;2023-04-03T11:43:32;3.63;;;1.20;;
77061;SDS011;65989;51.686;5.138;2023-04-03T11:46:00;3.50;;;1.15;;
77061;SDS011;65989;51.686;5.138;2023-04-03T11:50:53;3.03;;;1.10;;
77061;SDS011;65989;51.686;5.138;2023-04-03T11:53:36;5.47;;;1.40;;
77061;SDS011;65989;51.686;5.138;2023-04-03T12:01:46;2.55;;;1.20;;
77061;SDS011;65989;51.686;5.138;2023-04-03T12:04:14;3.50;;;1.20;;
77061;SDS011;65989;51.686;5.138;2023-04-03T12:06:47;2.10;;;1.00;;
77061;SDS011;65989;51.686;5.138;2023-04-03T12:09:26;3.13;;;1.20;;
77061;SDS011;65989;51.686;5.138;2023-04-03T12:11:54;2.87;;;1.27;;
77061;SDS011;65989;51.686;5.138;2023-04-03T12:14:22;3.30;;;1.25;;
77061;SDS011;65989;51.686;5.138;2023-04-03T12:16:50;2.50;;;1.17;;
77061;SDS011;65989;51.686;5.138;2023-04-03T12:19:27;3.80;;;1.23;;
77061;SDS011;65989;51.686;5.138;2023-04-03T12:24:29;4.57;;;2.17;;
77061;SDS011;65989;51.686;5.138;2023-04-03T12:34:58;3.23;;;1.40;;
77061;SDS011;65989;51.686;5.138;2023-04-03T12:45:38;2.47;;;1.27;;
77061;SDS011;65989;51.686;5.138;2023-04-03T12:48:15;4.28;;;1.40;;
77061;SDS011;65989;51.686;5.138;2023-04-03T12:50:43;4.05;;;1.25;;
77061;SDS011;65989;51.686;5.138;2023-04-03T12:55:38;2.67;;;1.20;;
77061;SDS011;65989;51.686;5.138;2023-04-03T13:03:40;6.83;;;1.30;;
77061;SDS011;65989;51.686;5.138;2023-04-03T13:06:10;4.70;;;1.50;;
77061;SDS011;65989;51.686;5.138;2023-04-03T13:08:56;3.08;;;1.42;;
77061;SDS011;65989;51.686;5.138;2023-04-03T13:11:24;4.03;;;1.40;;
77061;SDS011;65989;51.686;5.138;2023-04-03T13:13:58;2.75;;;1.20;;
77061;SDS011;65989;51.686;5.138;2023-04-03T13:16:26;3.77;;;1.30;;
77061;SDS011;65989;51.686;5.138;2023-04-03T13:18:52;4.32;;;1.52;;
77061;SDS011;65989;51.686;5.138;2023-04-03T13:21:19;3.67;;;1.48;;
77061;SDS011;65989;51.686;5.138;2023-04-03T13:23:50;4.05;;;1.50;;
77061;SDS011;65989;51.686;5.138;2023-04-03T13:26:19;3.05;;;1.30;;
77061;SDS011;65989;51.686;5.138;2023-04-03T13:28:47;3.90;;;1.70;;
77061;SDS011;65989;51.686;5.138;2023-04-03T13:33:55;5.97;;;1.75;;
77061;SDS011;65989;51.686;5.138;2023-04-03T13:36:24;4.15;;;1.55;;
77061;SDS011;65989;51.686;5.138;2023-04-03T13:39:00;5.05;;;1.42;;
77061;SDS011;65989;51.686;5.138;2023-04-03T13:41:33;3.93;;;1.80;;
77061;SDS011;65989;51.686;5.138;2023-04-03T13:46:57;4.20;;;1.80;;
77061;SDS011;65989;51.686;5.138;2023-04-03T13:49:33;5.82;;;1.95;;
77061;SDS011;65989;51.686;5.138;2023-04-03T13:51:58;4.65;;;1.80;;
77061;SDS011;65989;51.686;5.138;2023-04-03T13:54:33;4.53;;;1.80;;
77061;SDS011;65989;51.686;5.138;2023-04-03T13:57:01;3.80;;;1.60;;
77061;SDS011;65989;51.686;5.138;2023-04-03T13:59:32;5.38;;;1.60;;
77061;SDS011;65989;51.686;5.138;2023-04-03T14:04:28;3.50;;;1.48;;
77061;SDS011;65989;51.686;5.138;2023-04-03T14:07:09;3.40;;;1.40;;
77061;SDS011;65989;51.686;5.138;2023-04-03T14:09:38;4.63;;;1.67;;
77061;SDS011;65989;51.686;5.138;2023-04-03T14:12:08;4.32;;;1.50;;
77061;SDS011;65989;51.686;5.138;2023-04-03T14:14:39;3.90;;;1.53;;
77061;SDS011;65989;51.686;5.138;2023-04-03T14:17:19;4.15;;;1.90;;
77061;SDS011;65989;51.686;5.138;2023-04-03T14:19:47;5.05;;;1.83;;
77061;SDS011;65989;51.686;5.138;2023-04-03T14:22:19;4.38;;;1.70;;
77061;SDS011;65989;51.686;5.138;2023-04-03T14:24:50;4.50;;;1.53;;
77061;SDS011;65989;51.686;5.138;2023-04-03T14:29:44;4.07;;;1.77;;
77061;SDS011;65989;51.686;5.138;2023-04-03T14:32:11;5.63;;;1.52;;
77061;SDS011;65989;51.686;5.138;2023-04-03T14:34:38;4.10;;;1.77;;
77061;SDS011;65989;51.686;5.138;2023-04-03T14:37:04;4.97;;;1.80;;
77061;SDS011;65989;51.686;5.138;2023-04-03T14:39:30;5.20;;;1.70;;
77061;SDS011;65989;51.686;5.138;2023-04-03T14:41:55;6.13;;;1.70;;
77061;SDS011;65989;51.686;5.138;2023-04-03T14:44:21;4.23;;;1.70;;
77061;SDS011;65989;51.686;5.138;2023-04-03T14:46:48;4.68;;;1.80;;
77061;SDS011;65989;51.686;5.138;2023-04-03T14:49:18;8.13;;;1.80;;
77061;SDS011;65989;51.686;5.138;2023-04-03T14:51:46;6.15;;;1.95;;
77061;SDS011;65989;51.686;5.138;2023-04-03T14:54:19;4.27;;;1.83;;
77061;SDS011;65989;51.686;5.138;2023-04-03T14:56:50;6.35;;;1.48;;
77061;SDS011;65989;51.686;5.138;2023-04-03T14:59:16;6.35;;;1.73;;
77061;SDS011;65989;51.686;5.138;2023-04-03T15:01:44;5.47;;;1.60;;
77061;SDS011;65989;51.686;5.138;2023-04-03T15:04:18;4.47;;;1.70;;
77061;SDS011;65989;51.686;5.138;2023-04-03T15:06:45;4.00;;;1.80;;
77061;SDS011;65989;51.686;5.138;2023-04-03T15:09:19;4.68;;;1.60;;
77061;SDS011;65989;51.686;5.138;2023-04-03T15:11:47;4.40;;;1.40;;
77061;SDS011;65989;51.686;5.138;2023-04-03T15:14:14;4.40;;;1.50;;
77061;SDS011;65989;51.686;5.138;2023-04-03T15:16:39;5.53;;;1.97;;
77061;SDS011;65989;51.686;5.138;2023-04-03T15:19:05;6.13;;;2.00;;
77061;SDS011;65989;51.686;5.138;2023-04-03T15:21:30;5.47;;;1.70;;
77061;SDS011;65989;51.686;5.138;2023-04-03T15:23:55;5.05;;;1.55;;
77061;SDS011;65989;51.686;5.138;2023-04-03T15:26:21;5.93;;;1.80;;
77061;SDS011;65989;51.686;5.138;2023-04-03T15:28:46;3.43;;;1.50;;
77061;SDS011;65989;51.686;5.138;2023-04-03T15:31:12;7.57;;;1.90;;
77061;SDS011;65989;51.686;5.138;2023-04-03T15:33:37;5.20;;;1.95;;
77061;SDS011;65989;51.686;5.138;2023-04-03T15:36:03;6.17;;;1.80;;
77061;SDS011;65989;51.686;5.138;2023-04-03T15:38:29;5.65;;;1.75;;
77061;SDS011;65989;51.686;5.138;2023-04-03T15:40:55;4.40;;;1.73;;
77061;SDS011;65989;51.686;5.138;2023-04-03T15:43:20;5.23;;;1.90;;
77061;SDS011;65989;51.686;5.138;2023-04-03T15:45:46;4.80;;;1.58;;
77061;SDS011;65989;51.686;5.138;2023-04-03T15:48:12;3.70;;;1.50;;
77061;SDS011;65989;51.686;5.138;2023-04-03T15:50:38;4.90;;;1.93;;
77061;SDS011;65989;51.686;5.138;2023-04-03T15:53:04;7.50;;;1.67;;
77061;SDS011;65989;51.686;5.138;2023-04-03T15:55:31;8.07;;;1.40;;
77061;SDS011;65989;51.686;5.138;2023-04-03T15:57:58;4.88;;;1.55;;
77061;SDS011;65989;51.686;5.138;2023-04-03T16:00:24;6.20;;;1.67;;
77061;SDS011;65989;51.686;5.138;2023-04-03T16:02:52;4.78;;;1.73;;
77061;SDS011;65989;51.686;5.138;2023-04-03T16:05:20;5.23;;;1.60;;
77061;SDS011;65989;51.686;5.138;2023-04-03T16:07:46;5.18;;;1.60;;
77061;SDS011;65989;51.686;5.138;2023-04-03T16:10:12;5.33;;;1.50;;
77061;SDS011;65989;51.686;5.138;2023-04-03T16:12:39;6.47;;;1.75;;
77061;SDS011;65989;51.686;5.138;2023-04-03T16:15:05;4.53;;;1.70;;
77061;SDS011;65989;51.686;5.138;2023-04-03T16:17:32;4.63;;;1.80;;
77061;SDS011;65989;51.686;5.138;2023-04-03T16:19:58;11.20;;;2.20;;
77061;SDS011;65989;51.686;5.138;2023-04-03T16:22:25;6.90;;;1.65;;
77061;SDS011;65989;51.686;5.138;2023-04-03T16:24:52;4.88;;;1.50;;
77061;SDS011;65989;51.686;5.138;2023-04-03T16:27:18;4.93;;;1.87;;
77061;SDS011;65989;51.686;5.138;2023-04-03T16:29:43;6.25;;;1.90;;
77061;SDS011;65989;51.686;5.138;2023-04-03T16:32:09;4.80;;;1.73;;
77061;SDS011;65989;51.686;5.138;2023-04-03T16:34:34;7.32;;;1.88;;
77061;SDS011;65989;51.686;5.138;2023-04-03T16:37:00;4.60;;;1.80;;
77061;SDS011;65989;51.686;5.138;2023-04-03T16:39:25;3.40;;;1.47;;
77061;SDS011;65989;51.686;5.138;2023-04-03T16:41:51;4.85;;;1.80;;